sensor_id;sensor_type;location;lat;lon;timestamp;P1;durP1;ratioP1;P2;durP2;ratioP2
53062;SDS011;40529;52.172;10.548;2022-12-08T00:01:42;24.73;;;14.85;;
53062;SDS011;40529;52.172;10.548;2022-12-08T00:04:08;24.73;;;15.13;;
53062;SDS011;40529;52.172;10.548;2022-12-08T00:06:43;26.88;;;15.57;;
53062;SDS011;40529;52.172;10.548;2022-12-08T00:09:29;24.73;;;15.18;;
53062;SDS011;40529;52.172;10.548;2022-12-08T00:11:57;32.88;;;16.08;;
53062;SDS011;40529;52.172;10.548;2022-12-08T00:14:30;27.55;;;16.83;;
53062;SDS011;40529;52.172;10.548;2022-12-08T00:16:56;29.27;;;16.70;;
53062;SDS011;40529;52.172;10.548;2022-12-08T00:19:24;26.70;;;15.38;;
53062;SDS011;40529;52.172;10.548;2022-12-08T00:21:50;28.48;;;16.63;;
53062;SDS011;40529;52.172;10.548;2022-12-08T00:24:17;28.42;;;15.95;;
53062;SDS011;40529;52.172;10.548;2022-12-08T00:26:43;27.73;;;16.00;;
53062;SDS011;40529;52.172;10.548;2022-12-08T00:29:10;30.33;;;17.83;;
53062;SDS011;40529;52.172;10.548;2022-12-08T00:31:36;28.50;;;16.17;;
53062;SDS011;40529;52.172;10.548;2022-12-08T00:34:02;26.00;;;15.77;;
53062;SDS011;40529;52.172;10.548;2022-12-08T00:36:28;29.67;;;16.63;;
53062;SDS011;40529;52.172;10.548;2022-12-08T00:38:55;29.02;;;16.60;;
53062;SDS011;40529;52.172;10.548;2022-12-08T00:41:22;30.98;;;16.73;;
53062;SDS011;40529;52.172;10.548;2022-12-08T00:44:07;28.98;;;16.85;;
53062;SDS011;40529;52.172;10.548;2022-12-08T00:46:33;31.05;;;17.05;;
53062;SDS011;40529;52.172;10.548;2022-12-08T00:48:59;31.73;;;16.88;;
53062;SDS011;40529;52.172;10.548;2022-12-08T00:51:26;32.70;;;17.35;;
53062;SDS011;40529;52.172;10.548;2022-12-08T00:53:52;34.53;;;17.75;;
53062;SDS011;40529;52.172;10.548;2022-12-08T00:56:18;32.75;;;18.00;;
53062;SDS011;40529;52.172;10.548;2022-12-08T00:58:44;35.35;;;19.10;;
53062;SDS011;40529;52.172;10.548;2022-12-08T01:01:10;35.28;;;18.83;;
53062;SDS011;40529;52.172;10.548;2022-12-08T01:03:36;35.85;;;18.38;;
53062;SDS011;40529;52.172;10.548;2022-12-08T01:06:03;37.95;;;17.63;;
53062;SDS011;40529;52.172;10.548;2022-12-08T01:08:29;38.53;;;19.85;;
53062;SDS011;40529;52.172;10.548;2022-12-08T01:10:55;33.00;;;18.05;;
53062;SDS011;40529;52.172;10.548;2022-12-08T01:13:21;34.35;;;18.55;;
53062;SDS011;40529;52.172;10.548;2022-12-08T01:15:47;35.95;;;19.63;;
53062;SDS011;40529;52.172;10.548;2022-12-08T01:18:13;36.67;;;18.15;;
53062;SDS011;40529;52.172;10.548;2022-12-08T01:20:39;34.15;;;18.77;;
53062;SDS011;40529;52.172;10.548;2022-12-08T01:23:05;35.40;;;19.00;;
53062;SDS011;40529;52.172;10.548;2022-12-08T01:25:32;34.58;;;18.65;;
53062;SDS011;40529;52.172;10.548;2022-12-08T01:27:59;36.65;;;18.35;;
53062;SDS011;40529;52.172;10.548;2022-12-08T01:30:25;41.63;;;18.77;;
53062;SDS011;40529;52.172;10.548;2022-12-08T01:32:51;35.33;;;18.50;;
53062;SDS011;40529;52.172;10.548;2022-12-08T01:35:17;36.20;;;19.40;;
53062;SDS011;40529;52.172;10.548;2022-12-08T01:37:43;36.10;;;18.98;;
53062;SDS011;40529;52.172;10.548;2022-12-08T01:40:09;38.92;;;19.20;;
53062;SDS011;40529;52.172;10.548;2022-12-08T01:42:36;35.92;;;19.23;;
53062;SDS011;40529;52.172;10.548;2022-12-08T01:45:03;36.33;;;19.98;;
53062;SDS011;40529;52.172;10.548;2022-12-08T01:47:33;32.78;;;17.77;;
53062;SDS011;40529;52.172;10.548;2022-12-08T01:50:01;26.63;;;15.37;;
53062;SDS011;40529;52.172;10.548;2022-12-08T01:52:31;37.13;;;18.77;;
53062;SDS011;40529;52.172;10.548;2022-12-08T01:55:08;33.22;;;18.70;;
53062;SDS011;40529;52.172;10.548;2022-12-08T01:57:36;34.83;;;18.90;;
53062;SDS011;40529;52.172;10.548;2022-12-08T02:00:07;34.70;;;18.20;;
53062;SDS011;40529;52.172;10.548;2022-12-08T02:02:54;34.63;;;17.40;;
53062;SDS011;40529;52.172;10.548;2022-12-08T02:05:23;37.00;;;18.45;;
53062;SDS011;40529;52.172;10.548;2022-12-08T02:07:49;36.38;;;18.13;;
53062;SDS011;40529;52.172;10.548;2022-12-08T02:10:17;28.75;;;16.42;;
53062;SDS011;40529;52.172;10.548;2022-12-08T02:12:44;33.80;;;17.55;;
53062;SDS011;40529;52.172;10.548;2022-12-08T02:15:10;33.55;;;16.95;;
53062;SDS011;40529;52.172;10.548;2022-12-08T02:20:33;30.42;;;15.90;;
53062;SDS011;40529;52.172;10.548;2022-12-08T02:23:14;31.15;;;16.35;;
53062;SDS011;40529;52.172;10.548;2022-12-08T02:40:40;28.75;;;15.82;;
53062;SDS011;40529;52.172;10.548;2022-12-08T02:43:16;28.38;;;14.40;;
53062;SDS011;40529;52.172;10.548;2022-12-08T02:45:49;29.02;;;14.43;;
53062;SDS011;40529;52.172;10.548;2022-12-08T02:48:17;28.02;;;14.43;;
53062;SDS011;40529;52.172;10.548;2022-12-08T02:50:43;26.05;;;14.00;;
53062;SDS011;40529;52.172;10.548;2022-12-08T02:53:09;31.20;;;13.23;;
53062;SDS011;40529;52.172;10.548;2022-12-08T03:03:34;24.48;;;12.82;;
53062;SDS011;40529;52.172;10.548;2022-12-08T03:06:04;23.20;;;13.23;;
53062;SDS011;40529;52.172;10.548;2022-12-08T03:08:41;24.25;;;11.90;;
53062;SDS011;40529;52.172;10.548;2022-12-08T03:11:14;23.45;;;13.40;;
53062;SDS011;40529;52.172;10.548;2022-12-08T03:13:45;23.60;;;12.75;;
53062;SDS011;40529;52.172;10.548;2022-12-08T03:16:13;27.77;;;12.45;;
53062;SDS011;40529;52.172;10.548;2022-12-08T03:18:41;32.83;;;13.32;;
53062;SDS011;40529;52.172;10.548;2022-12-08T03:21:07;23.58;;;12.88;;
53062;SDS011;40529;52.172;10.548;2022-12-08T03:23:35;26.25;;;13.57;;
53062;SDS011;40529;52.172;10.548;2022-12-08T03:26:07;26.38;;;12.77;;
53062;SDS011;40529;52.172;10.548;2022-12-08T03:28:36;26.25;;;13.82;;
53062;SDS011;40529;52.172;10.548;2022-12-08T03:31:03;23.63;;;12.93;;
53062;SDS011;40529;52.172;10.548;2022-12-08T03:33:31;24.33;;;13.20;;
53062;SDS011;40529;52.172;10.548;2022-12-08T03:35:58;24.67;;;12.63;;
53062;SDS011;40529;52.172;10.548;2022-12-08T03:38:24;27.05;;;12.85;;
53062;SDS011;40529;52.172;10.548;2022-12-08T03:40:50;24.73;;;11.52;;
53062;SDS011;40529;52.172;10.548;2022-12-08T03:43:35;22.13;;;12.07;;
53062;SDS011;40529;52.172;10.548;2022-12-08T03:46:01;26.35;;;13.15;;
53062;SDS011;40529;52.172;10.548;2022-12-08T03:48:27;23.08;;;12.85;;
53062;SDS011;40529;52.172;10.548;2022-12-08T03:50:53;23.58;;;12.65;;
53062;SDS011;40529;52.172;10.548;2022-12-08T03:53:19;24.08;;;12.68;;
53062;SDS011;40529;52.172;10.548;2022-12-08T03:55:45;26.08;;;12.90;;
53062;SDS011;40529;52.172;10.548;2022-12-08T03:58:11;23.48;;;12.48;;
53062;SDS011;40529;52.172;10.548;2022-12-08T04:00:37;24.52;;;13.27;;
53062;SDS011;40529;52.172;10.548;2022-12-08T04:03:03;26.00;;;13.23;;
53062;SDS011;40529;52.172;10.548;2022-12-08T04:05:30;27.17;;;13.02;;
53062;SDS011;40529;52.172;10.548;2022-12-08T04:07:56;25.73;;;13.25;;
53062;SDS011;40529;52.172;10.548;2022-12-08T04:10:22;33.13;;;13.55;;
53062;SDS011;40529;52.172;10.548;2022-12-08T04:12:49;23.20;;;12.32;;
53062;SDS011;40529;52.172;10.548;2022-12-08T04:15:15;24.48;;;12.95;;
53062;SDS011;40529;52.172;10.548;2022-12-08T04:17:41;23.20;;;12.23;;
53062;SDS011;40529;52.172;10.548;2022-12-08T04:20:07;25.92;;;12.85;;
53062;SDS011;40529;52.172;10.548;2022-12-08T04:22:33;27.75;;;13.00;;
53062;SDS011;40529;52.172;10.548;2022-12-08T04:24:59;26.50;;;13.18;;
53062;SDS011;40529;52.172;10.548;2022-12-08T04:27:25;22.42;;;11.90;;
53062;SDS011;40529;52.172;10.548;2022-12-08T04:29:51;21.90;;;12.80;;
53062;SDS011;40529;52.172;10.548;2022-12-08T04:32:17;24.45;;;12.07;;
53062;SDS011;40529;52.172;10.548;2022-12-08T04:34:44;24.45;;;12.68;;
53062;SDS011;40529;52.172;10.548;2022-12-08T04:37:10;25.20;;;12.65;;
53062;SDS011;40529;52.172;10.548;2022-12-08T04:39:36;25.70;;;11.95;;
53062;SDS011;40529;52.172;10.548;2022-12-08T04:42:02;23.48;;;12.65;;
53062;SDS011;40529;52.172;10.548;2022-12-08T04:44:28;26.77;;;12.77;;
53062;SDS011;40529;52.172;10.548;2022-12-08T04:46:54;25.88;;;12.85;;
53062;SDS011;40529;52.172;10.548;2022-12-08T04:49:20;23.02;;;12.52;;
53062;SDS011;40529;52.172;10.548;2022-12-08T04:51:46;24.00;;;12.02;;
53062;SDS011;40529;52.172;10.548;2022-12-08T04:54:12;29.95;;;13.13;;
53062;SDS011;40529;52.172;10.548;2022-12-08T04:56:38;25.60;;;12.55;;
53062;SDS011;40529;52.172;10.548;2022-12-08T04:59:04;22.58;;;12.55;;
53062;SDS011;40529;52.172;10.548;2022-12-08T05:01:30;23.85;;;11.82;;
53062;SDS011;40529;52.172;10.548;2022-12-08T05:03:56;25.92;;;12.20;;
53062;SDS011;40529;52.172;10.548;2022-12-08T05:06:22;25.80;;;12.20;;
53062;SDS011;40529;52.172;10.548;2022-12-08T05:08:49;21.00;;;11.48;;
53062;SDS011;40529;52.172;10.548;2022-12-08T05:11:15;24.02;;;11.70;;
53062;SDS011;40529;52.172;10.548;2022-12-08T05:13:41;21.98;;;10.73;;
53062;SDS011;40529;52.172;10.548;2022-12-08T05:16:08;23.35;;;10.75;;
53062;SDS011;40529;52.172;10.548;2022-12-08T05:18:34;24.75;;;11.30;;
53062;SDS011;40529;52.172;10.548;2022-12-08T05:21:00;22.42;;;10.90;;
53062;SDS011;40529;52.172;10.548;2022-12-08T05:23:27;20.30;;;11.40;;
53062;SDS011;40529;52.172;10.548;2022-12-08T05:25:53;25.85;;;12.23;;
53062;SDS011;40529;52.172;10.548;2022-12-08T05:28:19;21.95;;;11.18;;
53062;SDS011;40529;52.172;10.548;2022-12-08T05:30:45;26.58;;;10.95;;
53062;SDS011;40529;52.172;10.548;2022-12-08T05:33:11;23.60;;;11.45;;
53062;SDS011;40529;52.172;10.548;2022-12-08T05:35:37;24.08;;;12.10;;
53062;SDS011;40529;52.172;10.548;2022-12-08T05:38:04;24.40;;;11.90;;
53062;SDS011;40529;52.172;10.548;2022-12-08T05:40:30;24.60;;;13.20;;
53062;SDS011;40529;52.172;10.548;2022-12-08T05:42:56;26.65;;;13.00;;
53062;SDS011;40529;52.172;10.548;2022-12-08T05:45:22;25.30;;;13.10;;
53062;SDS011;40529;52.172;10.548;2022-12-08T05:47:48;28.17;;;13.90;;
53062;SDS011;40529;52.172;10.548;2022-12-08T05:50:14;29.48;;;13.98;;
53062;SDS011;40529;52.172;10.548;2022-12-08T05:52:40;30.40;;;15.18;;
53062;SDS011;40529;52.172;10.548;2022-12-08T05:55:06;27.25;;;13.95;;
53062;SDS011;40529;52.172;10.548;2022-12-08T05:57:32;27.83;;;14.50;;
53062;SDS011;40529;52.172;10.548;2022-12-08T05:59:58;30.40;;;14.05;;
53062;SDS011;40529;52.172;10.548;2022-12-08T06:02:25;29.13;;;14.60;;
53062;SDS011;40529;52.172;10.548;2022-12-08T06:04:51;33.30;;;14.80;;
53062;SDS011;40529;52.172;10.548;2022-12-08T06:07:17;30.00;;;15.68;;
53062;SDS011;40529;52.172;10.548;2022-12-08T06:09:43;28.75;;;14.85;;
53062;SDS011;40529;52.172;10.548;2022-12-08T06:12:09;32.45;;;14.90;;
53062;SDS011;40529;52.172;10.548;2022-12-08T06:14:38;26.45;;;15.35;;
53062;SDS011;40529;52.172;10.548;2022-12-08T06:17:05;27.93;;;14.83;;
53062;SDS011;40529;52.172;10.548;2022-12-08T06:19:31;31.20;;;14.75;;
53062;SDS011;40529;52.172;10.548;2022-12-08T06:21:57;25.60;;;14.55;;
53062;SDS011;40529;52.172;10.548;2022-12-08T06:24:23;29.52;;;14.60;;
53062;SDS011;40529;52.172;10.548;2022-12-08T06:26:49;28.42;;;14.50;;
53062;SDS011;40529;52.172;10.548;2022-12-08T06:29:15;26.98;;;14.60;;
53062;SDS011;40529;52.172;10.548;2022-12-08T06:31:41;24.98;;;13.55;;
53062;SDS011;40529;52.172;10.548;2022-12-08T06:34:07;23.80;;;14.27;;
53062;SDS011;40529;52.172;10.548;2022-12-08T06:36:33;24.65;;;13.93;;
53062;SDS011;40529;52.172;10.548;2022-12-08T06:39:02;29.17;;;14.52;;
53062;SDS011;40529;52.172;10.548;2022-12-08T06:41:28;26.15;;;13.15;;
53062;SDS011;40529;52.172;10.548;2022-12-08T06:43:55;26.02;;;14.20;;
53062;SDS011;40529;52.172;10.548;2022-12-08T06:46:21;26.70;;;14.35;;
53062;SDS011;40529;52.172;10.548;2022-12-08T06:48:47;25.92;;;13.30;;
53062;SDS011;40529;52.172;10.548;2022-12-08T06:51:18;28.17;;;13.70;;
53062;SDS011;40529;52.172;10.548;2022-12-08T06:53:44;24.65;;;13.63;;
53062;SDS011;40529;52.172;10.548;2022-12-08T06:56:11;27.52;;;13.18;;
53062;SDS011;40529;52.172;10.548;2022-12-08T06:58:38;25.33;;;14.15;;
53062;SDS011;40529;52.172;10.548;2022-12-08T07:01:08;31.08;;;15.27;;
53062;SDS011;40529;52.172;10.548;2022-12-08T07:03:35;28.80;;;14.32;;
53062;SDS011;40529;52.172;10.548;2022-12-08T07:06:01;28.15;;;14.13;;
53062;SDS011;40529;52.172;10.548;2022-12-08T07:08:27;25.75;;;13.88;;
53062;SDS011;40529;52.172;10.548;2022-12-08T07:10:53;26.83;;;14.55;;
53062;SDS011;40529;52.172;10.548;2022-12-08T07:13:19;29.35;;;14.38;;
53062;SDS011;40529;52.172;10.548;2022-12-08T07:15:46;30.80;;;14.27;;
53062;SDS011;40529;52.172;10.548;2022-12-08T07:18:12;29.92;;;15.63;;
53062;SDS011;40529;52.172;10.548;2022-12-08T07:20:38;30.75;;;15.70;;
53062;SDS011;40529;52.172;10.548;2022-12-08T07:23:04;28.40;;;15.38;;
53062;SDS011;40529;52.172;10.548;2022-12-08T07:25:30;32.70;;;15.75;;
53062;SDS011;40529;52.172;10.548;2022-12-08T07:27:56;31.17;;;15.30;;
53062;SDS011;40529;52.172;10.548;2022-12-08T07:30:22;28.55;;;14.35;;
53062;SDS011;40529;52.172;10.548;2022-12-08T07:32:48;30.85;;;16.08;;
53062;SDS011;40529;52.172;10.548;2022-12-08T07:35:14;30.90;;;15.10;;
53062;SDS011;40529;52.172;10.548;2022-12-08T07:37:40;30.42;;;14.75;;
53062;SDS011;40529;52.172;10.548;2022-12-08T07:40:07;25.42;;;14.90;;
53062;SDS011;40529;52.172;10.548;2022-12-08T07:42:33;31.02;;;15.32;;
53062;SDS011;40529;52.172;10.548;2022-12-08T07:44:59;32.97;;;16.25;;
53062;SDS011;40529;52.172;10.548;2022-12-08T07:47:26;30.60;;;15.63;;
53062;SDS011;40529;52.172;10.548;2022-12-08T07:49:52;31.25;;;16.58;;
53062;SDS011;40529;52.172;10.548;2022-12-08T07:52:18;31.15;;;15.52;;
53062;SDS011;40529;52.172;10.548;2022-12-08T07:54:44;27.90;;;14.35;;
53062;SDS011;40529;52.172;10.548;2022-12-08T07:57:10;25.48;;;13.93;;
53062;SDS011;40529;52.172;10.548;2022-12-08T07:59:36;25.63;;;14.57;;
53062;SDS011;40529;52.172;10.548;2022-12-08T08:02:02;28.55;;;15.23;;
53062;SDS011;40529;52.172;10.548;2022-12-08T08:04:28;29.67;;;14.52;;
53062;SDS011;40529;52.172;10.548;2022-12-08T08:06:54;26.48;;;14.57;;
53062;SDS011;40529;52.172;10.548;2022-12-08T08:09:20;29.88;;;14.27;;
53062;SDS011;40529;52.172;10.548;2022-12-08T08:11:46;25.15;;;14.07;;
53062;SDS011;40529;52.172;10.548;2022-12-08T08:14:13;28.05;;;13.73;;
53062;SDS011;40529;52.172;10.548;2022-12-08T08:16:39;29.23;;;14.05;;
53062;SDS011;40529;52.172;10.548;2022-12-08T08:19:10;28.33;;;14.02;;
53062;SDS011;40529;52.172;10.548;2022-12-08T08:21:36;28.65;;;13.57;;
53062;SDS011;40529;52.172;10.548;2022-12-08T08:24:02;22.63;;;13.20;;
53062;SDS011;40529;52.172;10.548;2022-12-08T08:26:28;23.02;;;12.77;;
53062;SDS011;40529;52.172;10.548;2022-12-08T08:28:54;22.35;;;13.70;;
53062;SDS011;40529;52.172;10.548;2022-12-08T08:31:24;23.15;;;13.75;;
53062;SDS011;40529;52.172;10.548;2022-12-08T08:36:16;24.50;;;12.60;;
53062;SDS011;40529;52.172;10.548;2022-12-08T08:38:42;24.10;;;12.85;;
53062;SDS011;40529;52.172;10.548;2022-12-08T08:41:09;24.27;;;13.52;;
53062;SDS011;40529;52.172;10.548;2022-12-08T08:43:35;22.52;;;13.05;;
53062;SDS011;40529;52.172;10.548;2022-12-08T08:46:02;24.55;;;12.90;;
53062;SDS011;40529;52.172;10.548;2022-12-08T08:48:29;24.27;;;12.85;;
53062;SDS011;40529;52.172;10.548;2022-12-08T08:50:56;22.88;;;12.50;;
53062;SDS011;40529;52.172;10.548;2022-12-08T08:53:22;21.88;;;12.07;;
53062;SDS011;40529;52.172;10.548;2022-12-08T08:55:49;26.02;;;12.90;;
53062;SDS011;40529;52.172;10.548;2022-12-08T08:58:15;22.13;;;11.57;;
53062;SDS011;40529;52.172;10.548;2022-12-08T09:00:41;23.75;;;13.32;;
53062;SDS011;40529;52.172;10.548;2022-12-08T09:03:07;24.50;;;13.00;;
53062;SDS011;40529;52.172;10.548;2022-12-08T09:05:33;21.52;;;11.80;;
53062;SDS011;40529;52.172;10.548;2022-12-08T09:07:59;22.38;;;12.15;;
53062;SDS011;40529;52.172;10.548;2022-12-08T09:10:26;22.30;;;12.68;;
53062;SDS011;40529;52.172;10.548;2022-12-08T09:12:52;21.10;;;12.27;;
53062;SDS011;40529;52.172;10.548;2022-12-08T09:15:18;22.95;;;12.93;;
53062;SDS011;40529;52.172;10.548;2022-12-08T09:17:44;19.52;;;11.38;;
53062;SDS011;40529;52.172;10.548;2022-12-08T09:20:10;22.98;;;12.43;;
53062;SDS011;40529;52.172;10.548;2022-12-08T09:22:37;23.02;;;12.80;;
53062;SDS011;40529;52.172;10.548;2022-12-08T09:25:03;19.02;;;11.18;;
53062;SDS011;40529;52.172;10.548;2022-12-08T09:27:29;21.55;;;11.43;;
53062;SDS011;40529;52.172;10.548;2022-12-08T09:29:55;21.27;;;12.60;;
53062;SDS011;40529;52.172;10.548;2022-12-08T09:32:21;20.88;;;11.65;;
53062;SDS011;40529;52.172;10.548;2022-12-08T09:34:47;25.00;;;11.55;;
53062;SDS011;40529;52.172;10.548;2022-12-08T09:37:14;21.30;;;11.57;;
53062;SDS011;40529;52.172;10.548;2022-12-08T09:39:40;22.65;;;11.55;;
53062;SDS011;40529;52.172;10.548;2022-12-08T09:42:06;19.67;;;12.13;;
53062;SDS011;40529;52.172;10.548;2022-12-08T09:47:19;20.20;;;11.13;;
53062;SDS011;40529;52.172;10.548;2022-12-08T09:49:52;19.58;;;11.18;;
53062;SDS011;40529;52.172;10.548;2022-12-08T09:53:02;23.17;;;11.43;;
53062;SDS011;40529;52.172;10.548;2022-12-08T09:55:14;13.63;;;8.07;;
53062;SDS011;40529;52.172;10.548;2022-12-08T09:57:42;19.05;;;10.93;;
53062;SDS011;40529;52.172;10.548;2022-12-08T10:00:09;19.08;;;10.88;;
53062;SDS011;40529;52.172;10.548;2022-12-08T10:02:37;18.23;;;10.60;;
53062;SDS011;40529;52.172;10.548;2022-12-08T10:05:03;20.48;;;11.15;;
53062;SDS011;40529;52.172;10.548;2022-12-08T10:12:42;21.58;;;10.70;;
53062;SDS011;40529;52.172;10.548;2022-12-08T10:17:55;16.73;;;10.55;;
53062;SDS011;40529;52.172;10.548;2022-12-08T10:20:23;16.42;;;10.30;;
53062;SDS011;40529;52.172;10.548;2022-12-08T10:25:44;17.27;;;9.10;;
53062;SDS011;40529;52.172;10.548;2022-12-08T10:28:11;16.13;;;9.13;;
53062;SDS011;40529;52.172;10.548;2022-12-08T10:30:37;15.98;;;9.48;;
53062;SDS011;40529;52.172;10.548;2022-12-08T10:33:03;13.40;;;8.10;;
53062;SDS011;40529;52.172;10.548;2022-12-08T10:35:49;14.30;;;8.23;;
53062;SDS011;40529;52.172;10.548;2022-12-08T10:38:16;13.25;;;8.02;;
53062;SDS011;40529;52.172;10.548;2022-12-08T10:40:43;14.68;;;8.43;;
53062;SDS011;40529;52.172;10.548;2022-12-08T10:43:14;13.60;;;8.68;;
53062;SDS011;40529;52.172;10.548;2022-12-08T10:45:42;13.85;;;9.18;;
53062;SDS011;40529;52.172;10.548;2022-12-08T10:48:23;16.10;;;8.93;;
53062;SDS011;40529;52.172;10.548;2022-12-08T10:50:57;14.48;;;8.93;;
53062;SDS011;40529;52.172;10.548;2022-12-08T10:53:25;14.63;;;8.95;;
53062;SDS011;40529;52.172;10.548;2022-12-08T11:00:57;14.98;;;9.23;;
53062;SDS011;40529;52.172;10.548;2022-12-08T11:03:28;17.20;;;9.20;;
53062;SDS011;40529;52.172;10.548;2022-12-08T11:05:56;17.40;;;9.85;;
53062;SDS011;40529;52.172;10.548;2022-12-08T11:08:22;15.38;;;9.55;;
53062;SDS011;40529;52.172;10.548;2022-12-08T11:10:48;17.95;;;10.85;;
53062;SDS011;40529;52.172;10.548;2022-12-08T11:13:17;16.95;;;10.30;;
53062;SDS011;40529;52.172;10.548;2022-12-08T11:15:44;18.20;;;11.00;;
53062;SDS011;40529;52.172;10.548;2022-12-08T11:18:21;20.35;;;11.75;;
53062;SDS011;40529;52.172;10.548;2022-12-08T11:20:54;17.98;;;11.32;;
53062;SDS011;40529;52.172;10.548;2022-12-08T11:23:21;17.23;;;10.43;;
53062;SDS011;40529;52.172;10.548;2022-12-08T11:25:48;15.60;;;10.60;;
53062;SDS011;40529;52.172;10.548;2022-12-08T11:28:16;14.43;;;9.55;;
53062;SDS011;40529;52.172;10.548;2022-12-08T11:30:46;19.52;;;10.45;;
53062;SDS011;40529;52.172;10.548;2022-12-08T11:35:53;19.05;;;11.07;;
53062;SDS011;40529;52.172;10.548;2022-12-08T11:38:21;18.23;;;11.65;;
53062;SDS011;40529;52.172;10.548;2022-12-08T11:40:52;25.52;;;12.43;;
53062;SDS011;40529;52.172;10.548;2022-12-08T11:43:21;25.73;;;15.20;;
53062;SDS011;40529;52.172;10.548;2022-12-08T11:45:51;23.50;;;14.05;;
53062;SDS011;40529;52.172;10.548;2022-12-08T11:50:55;18.83;;;10.87;;
53062;SDS011;40529;52.172;10.548;2022-12-08T11:53:40;20.10;;;11.20;;
53062;SDS011;40529;52.172;10.548;2022-12-08T11:56:43;14.48;;;8.98;;
53062;SDS011;40529;52.172;10.548;2022-12-08T11:59:02;13.60;;;8.68;;
53062;SDS011;40529;52.172;10.548;2022-12-08T12:01:30;15.80;;;9.02;;
53062;SDS011;40529;52.172;10.548;2022-12-08T12:06:26;11.55;;;7.35;;
53062;SDS011;40529;52.172;10.548;2022-12-08T12:17:28;16.95;;;9.77;;
53062;SDS011;40529;52.172;10.548;2022-12-08T12:19:57;15.93;;;9.82;;
53062;SDS011;40529;52.172;10.548;2022-12-08T12:22:24;13.32;;;8.90;;
53062;SDS011;40529;52.172;10.548;2022-12-08T12:24:53;12.98;;;8.57;;
53062;SDS011;40529;52.172;10.548;2022-12-08T12:29:59;13.20;;;7.93;;
53062;SDS011;40529;52.172;10.548;2022-12-08T12:32:26;13.80;;;9.00;;
53062;SDS011;40529;52.172;10.548;2022-12-08T12:35:04;13.80;;;9.07;;
53062;SDS011;40529;52.172;10.548;2022-12-08T12:37:40;13.52;;;8.63;;
53062;SDS011;40529;52.172;10.548;2022-12-08T12:42:47;13.57;;;8.73;;
53062;SDS011;40529;52.172;10.548;2022-12-08T12:47:46;10.98;;;7.45;;
53062;SDS011;40529;52.172;10.548;2022-12-08T12:50:13;12.20;;;7.93;;
53062;SDS011;40529;52.172;10.548;2022-12-08T12:52:40;10.75;;;7.53;;
53062;SDS011;40529;52.172;10.548;2022-12-08T12:57:36;12.20;;;8.03;;
53062;SDS011;40529;52.172;10.548;2022-12-08T13:05:09;8.38;;;5.78;;
53062;SDS011;40529;52.172;10.548;2022-12-08T13:10:17;11.77;;;7.63;;
53062;SDS011;40529;52.172;10.548;2022-12-08T13:12:43;10.38;;;6.90;;
53062;SDS011;40529;52.172;10.548;2022-12-08T13:15:17;8.93;;;5.65;;
53062;SDS011;40529;52.172;10.548;2022-12-08T13:17:45;9.90;;;6.65;;
53062;SDS011;40529;52.172;10.548;2022-12-08T13:20:17;9.77;;;6.00;;
53062;SDS011;40529;52.172;10.548;2022-12-08T13:28:46;8.23;;;5.60;;
53062;SDS011;40529;52.172;10.548;2022-12-08T13:30:54;7.25;;;5.75;;
53062;SDS011;40529;52.172;10.548;2022-12-08T13:33:25;10.50;;;7.10;;
53062;SDS011;40529;52.172;10.548;2022-12-08T13:36:13;8.88;;;6.28;;
53062;SDS011;40529;52.172;10.548;2022-12-08T13:38:39;8.63;;;5.47;;
53062;SDS011;40529;52.172;10.548;2022-12-08T13:41:19;7.15;;;5.53;;
53062;SDS011;40529;52.172;10.548;2022-12-08T13:43:47;12.37;;;7.07;;
53062;SDS011;40529;52.172;10.548;2022-12-08T13:46:16;12.43;;;7.55;;
53062;SDS011;40529;52.172;10.548;2022-12-08T13:48:50;15.80;;;10.13;;
53062;SDS011;40529;52.172;10.548;2022-12-08T13:51:20;13.15;;;8.80;;
53062;SDS011;40529;52.172;10.548;2022-12-08T13:54:00;9.65;;;6.93;;
53062;SDS011;40529;52.172;10.548;2022-12-08T13:56:29;9.80;;;6.65;;
53062;SDS011;40529;52.172;10.548;2022-12-08T13:59:22;10.57;;;7.35;;
53062;SDS011;40529;52.172;10.548;2022-12-08T14:01:51;7.30;;;5.43;;
53062;SDS011;40529;52.172;10.548;2022-12-08T14:04:19;9.15;;;6.22;;
53062;SDS011;40529;52.172;10.548;2022-12-08T14:06:46;7.20;;;5.28;;
53062;SDS011;40529;52.172;10.548;2022-12-08T14:09:15;7.80;;;5.35;;
53062;SDS011;40529;52.172;10.548;2022-12-08T14:12:00;9.50;;;6.80;;
53062;SDS011;40529;52.172;10.548;2022-12-08T14:16:59;6.30;;;5.15;;
53062;SDS011;40529;52.172;10.548;2022-12-08T14:19:26;6.45;;;4.82;;
53062;SDS011;40529;52.172;10.548;2022-12-08T14:21:55;6.88;;;4.63;;
53062;SDS011;40529;52.172;10.548;2022-12-08T14:24:22;6.35;;;4.50;;
53062;SDS011;40529;52.172;10.548;2022-12-08T14:26:49;6.80;;;4.72;;
53062;SDS011;40529;52.172;10.548;2022-12-08T14:29:38;7.10;;;4.43;;
53062;SDS011;40529;52.172;10.548;2022-12-08T14:32:03;6.15;;;4.22;;
53062;SDS011;40529;52.172;10.548;2022-12-08T14:34:33;7.85;;;4.63;;
53062;SDS011;40529;52.172;10.548;2022-12-08T14:37:04;7.05;;;4.47;;
53062;SDS011;40529;52.172;10.548;2022-12-08T14:39:30;7.30;;;4.70;;
53062;SDS011;40529;52.172;10.548;2022-12-08T14:41:59;7.20;;;4.93;;
53062;SDS011;40529;52.172;10.548;2022-12-08T14:44:28;7.18;;;4.97;;
53062;SDS011;40529;52.172;10.548;2022-12-08T14:49:37;8.82;;;4.90;;
53062;SDS011;40529;52.172;10.548;2022-12-08T14:52:10;6.68;;;4.82;;
53062;SDS011;40529;52.172;10.548;2022-12-08T14:54:36;7.78;;;5.03;;
53062;SDS011;40529;52.172;10.548;2022-12-08T14:57:03;7.63;;;5.10;;
53062;SDS011;40529;52.172;10.548;2022-12-08T14:59:30;8.80;;;5.60;;
53062;SDS011;40529;52.172;10.548;2022-12-08T15:04:55;10.88;;;6.20;;
53062;SDS011;40529;52.172;10.548;2022-12-08T15:07:26;9.05;;;5.00;;
53062;SDS011;40529;52.172;10.548;2022-12-08T15:12:38;9.35;;;5.93;;
53062;SDS011;40529;52.172;10.548;2022-12-08T15:18:34;9.05;;;5.60;;
53062;SDS011;40529;52.172;10.548;2022-12-08T15:20:42;10.40;;;6.13;;
53062;SDS011;40529;52.172;10.548;2022-12-08T15:25:35;10.02;;;6.55;;
53062;SDS011;40529;52.172;10.548;2022-12-08T15:28:02;10.23;;;6.85;;
53062;SDS011;40529;52.172;10.548;2022-12-08T15:30:28;9.32;;;6.47;;
53062;SDS011;40529;52.172;10.548;2022-12-08T15:32:55;10.68;;;6.65;;
53062;SDS011;40529;52.172;10.548;2022-12-08T15:35:21;10.30;;;6.65;;
53062;SDS011;40529;52.172;10.548;2022-12-08T15:37:47;9.38;;;6.75;;
53062;SDS011;40529;52.172;10.548;2022-12-08T15:40:17;8.73;;;6.55;;
53062;SDS011;40529;52.172;10.548;2022-12-08T15:42:44;10.15;;;6.88;;
53062;SDS011;40529;52.172;10.548;2022-12-08T15:45:11;11.63;;;8.00;;
53062;SDS011;40529;52.172;10.548;2022-12-08T15:47:37;11.35;;;7.40;;
53062;SDS011;40529;52.172;10.548;2022-12-08T15:50:04;10.90;;;7.35;;
53062;SDS011;40529;52.172;10.548;2022-12-08T15:52:31;10.32;;;6.70;;
53062;SDS011;40529;52.172;10.548;2022-12-08T15:54:57;11.23;;;7.88;;
53062;SDS011;40529;52.172;10.548;2022-12-08T15:57:24;10.23;;;7.75;;
53062;SDS011;40529;52.172;10.548;2022-12-08T15:59:51;14.52;;;9.70;;
53062;SDS011;40529;52.172;10.548;2022-12-08T16:02:18;16.38;;;10.75;;